Ada, OH

6:56 PM EST on December 15, 2019 (GMT -0500)
Ada, Ohio | | Change Station
Active Advisory: Winter Weather Advisory

Elev 956 ft 40.77 °N, 83.83 °W | Updated 3 seconds ago

Clear
Clear
27.5 °F
Feels Like 28 °F
N
3
Wind Variable Wind from WSW
Gusts 3.0 mph

Today
High -- | Low -- °F
--% Chance of Precip.
Yesterday
High -- | Low -- °F
Precip. -- in
Pressure 30.17 in
Visibility 10.0 miles
Clouds Few 12000 ft
Windchill 28 °F
Dew Point 22 °F
Humidity 79%
Rainfall 0.00 in
Snow Depth Not available.
7:52 AM 5:08 PM
Waning Gibbous, 83% visible
METAR KAOH 152253Z AUTO 00000KT 10SM FEW120 M02/M07 A3013 RMK AO2 SLP214 T10221072
Pressure 30.17 in
Visibility 10.0 miles
Clouds Few 12000 ft
Windchill 28 °F
Dew Point 22 °F
Humidity 79%
Rainfall 0.00 in
Snow Depth Not available.
7:52 AM 5:08 PM
Waning Gibbous, 83% visible
METAR KAOH 152253Z AUTO 00000KT 10SM FEW120 M02/M07 A3013 RMK AO2 SLP214 T10221072

Get Your Daily Forecast Email!

Thanks for signing up!

Be on the lookout for a verification email in your inbox.

You'll start receiving severe weather alerts in your inbox..

×

10-Day Weather Forecast

Almanac

Astronomy

Dec. 15, 2019 Rise Set
Actual Time
Civil Twilight
Nautical Twilight
Astronomical Twilight
Moon
Length of Visible Light
Length of Day
Tomorrow will be .
, % of the Moon is Illuminated

Today's Extremes

State Highs State Lows

Community

WunderPhotos

Category 6

Welcome to Category 6. This is the collective home for Weather Underground's featured writeups by Dr. Jeff Masters (right), Bob Henson (left), Chris Burt, and other regular contributors.

Nearby

Air Quality

  Air Quality AQ Index Pollutant
Not available.

Snow Depth

Station Depth Elevation

Earthquake Activity

City Distance Mag. Time & Date
Minimum magnitude displayed is 2.5.

Coastal Water Temperatures

Place Temperature

Stations

Nearby Weather Stations

Station Location Temp. Windchill Dew Point Humidity Wind Precip. Elev Updated Type
                   

Watches & Warnings

Winter Weather Advisory
Issued: 2:58 PM EST Dec. 15, 2019 – National Weather Service

... Winter Weather Advisory in effect until 7 am EST Monday...

* what... mixed precipitation expected. Total snow accumulations of
1 to 2 inches and ice accumulations of a light glaze.

* Where... Hardin, Mercer and Auglaize counties.

* When... until 7 am EST Monday.

* Impacts... plan on slippery Road conditions. The hazardous
conditions could impact the Monday morning commute.

* Additional details... precipitation will start out as snow with
much of the snow accumulation occurring from this evening into
early Monday morning. Snow will mix with or change to freezing
rain before tapering off.

Precautionary/preparedness actions...

Slow down and use caution while traveling.

Additional information can be found at www.Weather.Gov/iln as
well as on our facebook and twitter pages.